createdAt,value
2022-12-13T00:01:32.714Z,63.27
2022-12-13T00:04:02.580Z,65.13
2022-12-13T00:06:31.472Z,66.03
2022-12-13T00:09:00.042Z,63.97
2022-12-13T00:11:29.418Z,67.80
2022-12-13T00:13:57.689Z,53.00
2022-12-13T00:16:27.407Z,65.90
2022-12-13T00:18:57.695Z,64.90
2022-12-13T00:21:27.796Z,64.03
2022-12-13T00:23:55.648Z,69.03
2022-12-13T00:26:25.461Z,68.97
2022-12-13T00:28:54.833Z,69.80
2022-12-13T00:31:56.595Z,71.30
2022-12-13T00:34:12.520Z,50.93
2022-12-13T00:36:40.451Z,83.97
2022-12-13T00:39:08.634Z,70.23
2022-12-13T00:41:37.928Z,60.83
2022-12-13T00:44:07.371Z,53.77
2022-12-13T00:46:35.245Z,64.47
2022-12-13T00:49:03.271Z,63.33
2022-12-13T00:51:33.432Z,68.47
2022-12-13T00:54:02.622Z,56.30
2022-12-13T00:56:32.355Z,54.63
2022-12-13T00:59:00.734Z,54.73
2022-12-13T01:01:32.489Z,72.00
2022-12-13T01:04:01.935Z,65.80
2022-12-13T01:06:34.244Z,57.60
2022-12-13T01:09:03.686Z,70.53
2022-12-13T01:11:31.634Z,62.80
2022-12-13T01:13:59.464Z,62.40
2022-12-13T01:16:27.525Z,71.53
2022-12-13T01:18:58.465Z,65.27
2022-12-13T01:21:26.340Z,50.50
2022-12-13T01:23:54.166Z,73.20
2022-12-13T01:26:23.874Z,59.97
2022-12-13T01:28:51.962Z,64.67
2022-12-13T01:31:21.314Z,69.00
2022-12-13T01:33:50.188Z,69.20
2022-12-13T01:36:27.989Z,66.03
2022-12-13T01:38:58.482Z,57.10
2022-12-13T01:41:28.285Z,59.50
2022-12-13T01:44:01.245Z,71.90
2022-12-13T01:46:29.751Z,56.73
2022-12-13T01:49:04.634Z,62.27
2022-12-13T01:51:38.477Z,59.50
2022-12-13T01:54:10.403Z,65.20
2022-12-13T01:56:42.310Z,83.43
2022-12-13T01:59:12.040Z,68.87
2022-12-13T02:01:41.217Z,68.67
2022-12-13T02:04:09.733Z,69.67
2022-12-13T02:06:42.149Z,60.77
2022-12-13T02:09:11.231Z,65.40
2022-12-13T02:11:43.586Z,54.50
2022-12-13T02:14:11.636Z,60.33
2022-12-13T02:16:50.348Z,46.67
2022-12-13T02:19:44.311Z,58.50
2022-12-13T02:22:34.123Z,61.13
2022-12-13T02:25:34.257Z,78.57
2022-12-13T02:28:30.965Z,67.77
2022-12-13T02:31:09.348Z,54.10
2022-12-13T02:33:48.068Z,65.50
2022-12-13T02:36:25.116Z,65.47
2022-12-13T02:39:00.366Z,81.67
2022-12-13T02:41:37.366Z,75.23
2022-12-13T02:44:21.748Z,54.73
2022-12-13T02:46:55.577Z,67.93
2022-12-13T02:49:26.795Z,64.37
2022-12-13T02:51:57.690Z,66.63
2022-12-13T02:54:25.828Z,56.47
2022-12-13T02:56:55.419Z,74.97
2022-12-13T02:59:26.094Z,69.07
2022-12-13T03:02:09.662Z,66.07
2022-12-13T03:05:13.541Z,64.67
2022-12-13T03:07:52.720Z,61.60
2022-12-13T03:10:28.501Z,51.20
2022-12-13T03:13:20.018Z,68.60
2022-12-13T03:15:56.911Z,66.97
2022-12-13T03:18:28.311Z,57.50
2022-12-13T03:21:00.010Z,49.67
2022-12-13T03:23:28.904Z,53.57
2022-12-13T03:26:00.665Z,66.47
2022-12-13T03:28:28.648Z,57.43
2022-12-13T03:30:56.615Z,53.73
2022-12-13T03:33:26.063Z,54.90
2022-12-13T03:35:54.113Z,50.60
2022-12-13T03:38:23.462Z,53.07
2022-12-13T03:40:54.479Z,56.10
2022-12-13T03:43:23.323Z,56.17
2022-12-13T03:45:51.962Z,62.90
2022-12-13T03:48:21.831Z,37.83
2022-12-13T03:50:54.195Z,43.17
2022-12-13T03:53:33.460Z,62.93
2022-12-13T03:56:02.795Z,57.53
2022-12-13T03:58:35.104Z,63.37
2022-12-13T04:01:06.458Z,54.67
2022-12-13T04:03:34.542Z,59.70
2022-12-13T04:06:03.965Z,65.40
2022-12-13T04:08:32.464Z,53.60
2022-12-13T04:11:00.642Z,40.50
2022-12-13T04:13:33.279Z,60.90
2022-12-13T04:16:01.607Z,53.73
2022-12-13T04:18:29.685Z,54.27
2022-12-13T04:20:57.698Z,47.83
2022-12-13T04:23:27.096Z,62.87
2022-12-13T04:25:55.145Z,53.83
2022-12-13T04:28:23.413Z,58.23
2022-12-13T04:30:52.953Z,60.37
2022-12-13T04:33:21.796Z,40.03
2022-12-13T04:35:50.116Z,64.27
2022-12-13T04:38:18.091Z,65.83
2022-12-13T04:40:49.547Z,54.10
2022-12-13T04:43:17.648Z,56.20
2022-12-13T04:45:45.523Z,66.37
2022-12-13T04:48:13.821Z,72.97
2022-12-13T04:51:01.349Z,58.67
2022-12-13T04:53:30.034Z,50.47
2022-12-13T04:55:59.734Z,48.70
2022-12-13T04:58:28.771Z,46.40
2022-12-13T05:00:56.683Z,66.47
2022-12-13T05:03:25.289Z,46.20
2022-12-13T05:05:53.154Z,69.53
2022-12-13T05:08:21.345Z,50.83
2022-12-13T05:10:49.245Z,56.60
2022-12-13T05:13:18.513Z,54.43
2022-12-13T05:15:49.517Z,60.03
2022-12-13T05:18:21.541Z,46.70
2022-12-13T05:20:51.116Z,46.50
2022-12-13T05:23:22.980Z,59.17
2022-12-13T05:25:51.341Z,51.37
2022-12-13T05:28:28.538Z,59.47
2022-12-13T05:30:58.405Z,59.50
2022-12-13T05:33:27.318Z,52.73
2022-12-13T05:36:00.484Z,52.33
2022-12-13T05:38:30.312Z,40.80
2022-12-13T05:40:58.432Z,37.67
2022-12-13T05:43:43.194Z,31.77
2022-12-13T05:46:12.442Z,57.67
2022-12-13T05:48:40.501Z,56.23
2022-12-13T05:51:09.841Z,63.80
2022-12-13T05:53:40.109Z,43.37
2022-12-13T05:56:08.661Z,34.40
2022-12-13T05:58:39.374Z,38.87
2022-12-13T06:01:08.780Z,50.03
2022-12-13T06:03:37.061Z,43.93
2022-12-13T06:06:06.721Z,53.60
2022-12-13T06:08:34.925Z,47.33
2022-12-13T06:11:11.242Z,44.67
2022-12-13T06:13:43.852Z,53.27
2022-12-13T06:16:22.807Z,60.57
2022-12-13T06:19:02.804Z,54.77
2022-12-13T06:21:41.145Z,52.80
2022-12-13T06:24:14.269Z,60.67
2022-12-13T06:26:42.135Z,45.03
2022-12-13T06:29:11.668Z,61.53
2022-12-13T06:31:39.521Z,62.90
2022-12-13T06:34:14.203Z,67.70
2022-12-13T06:36:43.367Z,65.10
2022-12-13T06:39:11.265Z,45.00
2022-12-13T06:41:39.598Z,56.40
2022-12-13T06:44:07.445Z,74.70
2022-12-13T06:46:36.934Z,43.17
2022-12-13T06:49:08.710Z,78.50
2022-12-13T06:51:36.566Z,62.20
2022-12-13T06:54:04.826Z,67.20
2022-12-13T06:56:32.979Z,76.60
2022-12-13T06:59:02.286Z,65.47
2022-12-13T07:01:37.069Z,91.33
2022-12-13T07:04:29.340Z,96.73
2022-12-13T07:07:01.309Z,49.53
2022-12-13T07:09:30.854Z,83.30
2022-12-13T07:11:58.819Z,75.83
2022-12-13T07:14:26.761Z,83.70
2022-12-13T07:17:02.828Z,73.80
2022-12-13T07:19:35.570Z,92.03
2022-12-13T07:22:05.850Z,92.00
2022-12-13T07:24:35.043Z,93.23
2022-12-13T07:27:03.638Z,85.43
2022-12-13T07:29:32.258Z,81.70
2022-12-13T07:32:02.279Z,96.57
2022-12-13T07:34:32.313Z,56.43
2022-12-13T07:37:00.297Z,70.13
2022-12-13T07:39:28.526Z,104.87
2022-12-13T07:41:57.037Z,106.97
2022-12-13T07:44:25.682Z,65.70
2022-12-13T07:46:53.903Z,69.37
2022-12-13T07:49:21.775Z,62.33
2022-12-13T07:51:51.109Z,67.97
2022-12-13T07:54:19.304Z,59.33
2022-12-13T07:56:47.571Z,70.07
2022-12-13T07:59:15.873Z,90.03
2022-12-13T08:01:56.805Z,82.70
2022-12-13T08:04:24.781Z,80.30
2022-12-13T08:06:54.128Z,55.43
2022-12-13T08:09:22.072Z,56.77
2022-12-13T08:11:52.126Z,63.67
2022-12-13T08:14:20.356Z,61.60
2022-12-13T08:16:48.933Z,57.57
2022-12-13T08:19:17.295Z,53.83
2022-12-13T08:21:55.216Z,57.93
2022-12-13T08:24:26.423Z,70.50
2022-12-13T08:26:55.071Z,66.47
2022-12-13T08:29:33.987Z,62.50
2022-12-13T08:32:04.376Z,61.27
2022-12-13T08:34:32.757Z,60.90
2022-12-13T08:37:03.239Z,59.87
2022-12-13T08:39:35.341Z,72.80
2022-12-13T08:42:16.099Z,93.77
2022-12-13T08:44:47.080Z,82.03
2022-12-13T08:47:22.553Z,71.87
2022-12-13T08:49:53.314Z,81.90
2022-12-13T08:52:23.049Z,79.70
2022-12-13T08:54:52.512Z,90.13
2022-12-13T08:57:20.569Z,85.67
2022-12-13T08:59:50.354Z,62.27
2022-12-13T09:02:18.469Z,89.67
2022-12-13T09:04:47.226Z,82.43
2022-12-13T09:07:15.419Z,90.40
2022-12-13T09:09:43.270Z,81.23
2022-12-13T09:12:29.876Z,72.90
2022-12-13T09:15:01.249Z,80.97
2022-12-13T09:17:36.385Z,86.30
2022-12-13T09:20:28.093Z,89.87
2022-12-13T09:23:01.561Z,73.90
2022-12-13T09:25:36.822Z,81.70
2022-12-13T09:28:09.174Z,74.90
2022-12-13T09:30:38.025Z,73.73
2022-12-13T09:33:18.185Z,66.87
2022-12-13T09:35:54.475Z,83.07
2022-12-13T09:38:22.357Z,75.50
2022-12-13T09:40:58.399Z,78.77
2022-12-13T09:43:33.753Z,67.60
2022-12-13T09:46:23.030Z,65.07
2022-12-13T09:49:01.636Z,56.43
2022-12-13T09:51:43.676Z,62.27
2022-12-13T09:54:19.499Z,69.33
2022-12-13T09:56:50.861Z,64.50
2022-12-13T09:59:27.768Z,45.43
2022-12-13T10:01:55.958Z,40.40
2022-12-13T10:04:23.922Z,53.63
2022-12-13T10:06:54.593Z,46.87
2022-12-13T10:09:22.917Z,41.77
2022-12-13T10:11:52.491Z,42.37
2022-12-13T10:14:27.584Z,48.13
2022-12-13T10:16:58.907Z,45.00
2022-12-13T10:19:34.989Z,51.13
2022-12-13T10:22:04.722Z,42.90
2022-12-13T10:24:50.491Z,36.70
2022-12-13T10:27:20.456Z,36.13
2022-12-13T10:30:02.919Z,32.00
2022-12-13T10:32:37.532Z,31.05
2022-12-13T10:35:20.792Z,30.00
2022-12-13T10:37:48.960Z,34.25
2022-12-13T10:40:32.421Z,29.15
2022-12-13T10:43:14.187Z,29.58
2022-12-13T10:45:45.107Z,32.08
2022-12-13T10:48:22.309Z,31.45
2022-12-13T10:51:00.019Z,31.60
2022-12-13T10:53:34.124Z,30.73
2022-12-13T10:56:03.185Z,27.35
2022-12-13T10:58:40.154Z,31.48
2022-12-13T11:01:24.421Z,29.83
2022-12-13T11:04:02.345Z,28.73
2022-12-13T11:06:43.456Z,35.50
2022-12-13T11:09:23.081Z,30.92
2022-12-13T11:11:58.012Z,31.98
2022-12-13T11:14:31.845Z,28.67
2022-12-13T11:17:08.876Z,26.05
2022-12-13T11:19:40.772Z,25.38
2022-12-13T11:22:11.095Z,29.85
2022-12-13T11:24:42.264Z,25.05
2022-12-13T11:27:29.503Z,27.33
2022-12-13T11:30:10.229Z,24.33
2022-12-13T11:32:58.902Z,27.20
2022-12-13T11:35:33.954Z,25.20
2022-12-13T11:38:09.506Z,24.08
2022-12-13T11:40:44.650Z,27.60
2022-12-13T11:43:25.124Z,30.23
2022-12-13T11:45:56.911Z,25.30
2022-12-13T11:48:38.243Z,28.35
2022-12-13T11:51:09.237Z,26.88
2022-12-13T11:53:47.250Z,25.33
2022-12-13T11:56:25.539Z,27.50
2022-12-13T11:59:03.938Z,29.30
2022-12-13T12:01:40.102Z,29.33
2022-12-13T12:04:18.345Z,23.77
2022-12-13T12:06:53.103Z,24.23
2022-12-13T12:09:26.276Z,24.33
2022-12-13T12:12:02.178Z,24.60
2022-12-13T12:14:37.543Z,24.05
2022-12-13T12:17:06.861Z,30.20
2022-12-13T12:19:39.762Z,27.67
2022-12-13T12:22:22.547Z,21.50
2022-12-13T12:25:02.877Z,28.00
2022-12-13T12:27:38.811Z,22.50
2022-12-13T12:30:23.568Z,26.27
2022-12-13T12:33:05.746Z,25.52
2022-12-13T12:35:59.577Z,25.65
2022-12-13T12:39:06.371Z,23.92
2022-12-13T12:41:46.037Z,21.90
2022-12-13T12:44:30.754Z,24.33
2022-12-13T12:50:24.252Z,22.85
2022-12-13T12:53:07.238Z,25.75
2022-12-13T12:55:49.241Z,22.17
2022-12-13T12:58:26.702Z,21.20
2022-12-13T13:01:09.217Z,24.83
2022-12-13T13:03:40.108Z,24.70
2022-12-13T13:06:13.652Z,21.23
2022-12-13T13:08:51.480Z,22.15
2022-12-13T13:11:25.834Z,25.10
2022-12-13T13:14:06.678Z,23.20
2022-12-13T13:16:37.779Z,26.08
2022-12-13T13:19:06.538Z,24.85
2022-12-13T13:21:52.152Z,24.15
2022-12-13T13:24:24.405Z,23.20
2022-12-13T13:26:55.284Z,24.00
2022-12-13T13:29:43.242Z,23.55
2022-12-13T13:32:40.828Z,21.13
2022-12-13T13:35:53.379Z,24.13
2022-12-13T13:38:52.549Z,24.63
2022-12-13T13:41:57.456Z,23.50
2022-12-13T13:45:04.509Z,27.58
2022-12-13T13:47:43.344Z,19.35
2022-12-13T13:50:49.719Z,26.42
2022-12-13T13:54:02.255Z,21.02
2022-12-13T13:57:09.050Z,22.40
2022-12-13T14:00:12.019Z,26.20
2022-12-13T14:03:33.151Z,23.10
2022-12-13T14:06:49.592Z,24.97
2022-12-13T14:10:05.142Z,26.67
2022-12-13T14:12:59.282Z,24.33
2022-12-13T14:16:03.955Z,25.93
2022-12-13T14:19:17.733Z,23.23
2022-12-13T14:21:59.365Z,26.90
2022-12-13T14:24:40.013Z,24.47
2022-12-13T14:27:35.253Z,23.50
2022-12-13T14:30:17.973Z,24.07
2022-12-13T14:32:53.502Z,27.70
2022-12-13T14:35:27.406Z,24.60
2022-12-13T14:38:04.655Z,26.40
2022-12-13T14:40:34.756Z,31.60
2022-12-13T14:43:03.119Z,26.93
2022-12-13T14:45:34.654Z,25.90
2022-12-13T14:48:10.075Z,30.40
2022-12-13T14:50:40.115Z,25.43
2022-12-13T14:53:09.895Z,28.13
2022-12-13T14:55:38.805Z,28.77
2022-12-13T14:58:20.185Z,34.40
2022-12-13T15:00:49.147Z,28.40
2022-12-13T15:03:24.914Z,30.87
2022-12-13T15:05:55.730Z,28.00
2022-12-13T15:08:24.521Z,24.63
2022-12-13T15:10:54.806Z,33.43
2022-12-13T15:13:29.498Z,26.37
2022-12-13T15:16:01.336Z,28.50
2022-12-13T15:18:31.204Z,26.93
2022-12-13T15:20:59.839Z,23.33
2022-12-13T15:23:32.725Z,29.23
2022-12-13T15:26:03.996Z,25.37
2022-12-13T15:28:34.790Z,27.63
2022-12-13T15:31:05.398Z,27.73
2022-12-13T15:33:41.071Z,29.80
2022-12-13T15:36:20.158Z,32.53
2022-12-13T15:39:01.366Z,25.53
2022-12-13T15:41:31.478Z,27.77
2022-12-13T15:44:03.413Z,27.00
2022-12-13T15:46:36.882Z,31.60
2022-12-13T15:49:14.149Z,37.20
2022-12-13T15:51:57.910Z,30.07
2022-12-13T15:54:27.641Z,31.03
2022-12-13T15:57:13.069Z,32.07
2022-12-13T15:59:42.380Z,30.23
2022-12-13T16:02:18.123Z,34.47
2022-12-13T16:04:47.464Z,29.23
2022-12-13T16:07:25.014Z,31.03
2022-12-13T16:09:54.399Z,25.33
2022-12-13T16:12:25.921Z,32.87
2022-12-13T16:14:53.772Z,32.43
2022-12-13T16:17:36.939Z,29.90
2022-12-13T16:20:14.184Z,28.47
2022-12-13T16:22:42.624Z,32.47
2022-12-13T16:25:13.657Z,26.97
2022-12-13T16:27:41.856Z,28.00
2022-12-13T16:30:16.781Z,30.80
2022-12-13T16:33:17.533Z,35.80
2022-12-13T16:35:34.181Z,26.17
2022-12-13T16:38:09.135Z,36.70
2022-12-13T16:40:37.673Z,28.40
2022-12-13T16:43:07.389Z,34.80
2022-12-13T16:45:42.205Z,31.83
2022-12-13T16:48:10.816Z,35.00
2022-12-13T16:50:43.954Z,32.43
2022-12-13T16:53:17.172Z,39.07
2022-12-13T16:55:45.657Z,31.43
2022-12-13T16:58:26.350Z,37.53
2022-12-13T17:00:59.742Z,32.53
2022-12-13T17:03:28.595Z,33.17
2022-12-13T17:05:58.713Z,33.20
2022-12-13T17:08:28.011Z,33.97
2022-12-13T17:10:58.275Z,36.90
2022-12-13T17:13:26.872Z,35.60
2022-12-13T17:15:59.625Z,36.53
2022-12-13T17:18:28.812Z,44.50
2022-12-13T17:20:59.032Z,29.93
2022-12-13T17:23:27.534Z,36.57
2022-12-13T17:25:58.025Z,34.63
2022-12-13T17:28:27.343Z,37.00
2022-12-13T17:30:56.002Z,28.50
2022-12-13T17:33:28.546Z,32.23
2022-12-13T17:35:58.198Z,36.07
2022-12-13T17:38:26.353Z,33.93
2022-12-13T17:40:55.279Z,27.83
2022-12-13T17:43:33.019Z,36.83
2022-12-13T17:46:03.950Z,32.80
2022-12-13T17:48:39.309Z,44.87
2022-12-13T17:51:11.011Z,32.40
2022-12-13T17:53:41.042Z,32.53
2022-12-13T17:56:12.044Z,30.07
2022-12-13T17:58:40.563Z,28.70
2022-12-13T18:01:13.897Z,27.53
2022-12-13T18:03:42.565Z,33.60
2022-12-13T18:06:12.615Z,31.80
2022-12-13T18:08:44.544Z,34.17
2022-12-13T18:14:02.575Z,37.57
2022-12-13T18:16:37.096Z,24.30
2022-12-13T18:19:09.180Z,35.53
2022-12-13T18:21:39.244Z,39.00
2022-12-13T18:24:08.333Z,34.17
2022-12-13T18:26:36.331Z,44.17
2022-12-13T18:29:05.489Z,43.90
2022-12-13T18:31:33.701Z,33.57
2022-12-13T18:34:03.593Z,42.90
2022-12-13T18:36:34.624Z,46.67
2022-12-13T18:39:05.353Z,40.00
2022-12-13T18:41:33.755Z,44.73
2022-12-13T18:44:03.939Z,43.57
2022-12-13T18:46:33.252Z,39.30
2022-12-13T18:49:01.692Z,41.03
2022-12-13T18:51:30.016Z,44.10
2022-12-13T18:53:59.267Z,43.40
2022-12-13T18:56:29.913Z,38.43
2022-12-13T18:58:59.547Z,43.57
2022-12-13T19:01:28.591Z,34.57
2022-12-13T19:03:59.795Z,35.83
2022-12-13T19:06:28.872Z,41.97
2022-12-13T19:08:58.913Z,41.93
2022-12-13T19:11:29.558Z,40.67
2022-12-13T19:13:58.015Z,38.80
2022-12-13T19:16:26.739Z,33.73
2022-12-13T19:18:55.038Z,41.30
2022-12-13T19:21:24.043Z,42.20
2022-12-13T19:23:57.429Z,45.37
2022-12-13T19:26:26.817Z,43.87
2022-12-13T19:28:57.473Z,33.33
2022-12-13T19:31:31.144Z,32.03
2022-12-13T19:34:01.184Z,37.80
2022-12-13T19:36:29.431Z,37.20
2022-12-13T19:38:57.389Z,37.63
2022-12-13T19:41:26.289Z,34.20
2022-12-13T19:43:55.824Z,35.77
2022-12-13T19:46:23.987Z,41.10
2022-12-13T19:48:53.260Z,41.93
2022-12-13T19:51:21.578Z,51.17
2022-12-13T19:53:49.792Z,38.73
2022-12-13T19:56:20.712Z,38.47
2022-12-13T19:58:50.064Z,32.33
2022-12-13T20:01:20.140Z,39.30
2022-12-13T20:03:48.735Z,36.57
2022-12-13T20:06:19.203Z,44.40
2022-12-13T20:08:47.517Z,38.57
2022-12-13T20:11:17.138Z,47.37
2022-12-13T20:13:45.205Z,44.13
2022-12-13T20:16:17.881Z,36.30
2022-12-13T20:18:47.897Z,39.57
2022-12-13T20:21:16.743Z,35.63
2022-12-13T20:23:49.531Z,41.30
2022-12-13T20:26:21.102Z,39.77
2022-12-13T20:28:49.677Z,34.83
2022-12-13T20:31:19.728Z,36.53
2022-12-13T20:33:49.965Z,40.33
2022-12-13T20:36:25.330Z,34.90
2022-12-13T20:38:55.820Z,36.27
2022-12-13T20:41:26.039Z,40.40
2022-12-13T20:43:54.864Z,33.53
2022-12-13T20:46:23.295Z,34.13
2022-12-13T20:48:53.412Z,32.70
2022-12-13T20:51:23.976Z,35.67
2022-12-13T20:53:53.396Z,32.40
2022-12-13T20:56:23.369Z,37.07
2022-12-13T20:58:52.127Z,32.63
2022-12-13T21:01:21.797Z,37.83
2022-12-13T21:03:50.567Z,33.13
2022-12-13T21:06:19.889Z,35.40
2022-12-13T21:08:54.579Z,32.07
2022-12-13T21:11:27.679Z,29.97
2022-12-13T21:14:06.824Z,31.73
2022-12-13T21:16:41.939Z,27.73
2022-12-13T21:19:13.027Z,24.53
2022-12-13T21:21:42.675Z,23.63
2022-12-13T21:24:13.300Z,27.07
2022-12-13T21:26:41.291Z,34.13
2022-12-13T21:29:11.169Z,31.07
2022-12-13T21:31:40.514Z,27.57
2022-12-13T21:34:09.196Z,31.07
2022-12-13T21:36:38.884Z,25.50
2022-12-13T21:39:12.419Z,31.27
2022-12-13T21:41:41.307Z,19.23
2022-12-13T21:44:11.026Z,22.83
2022-12-13T21:49:26.843Z,24.10
2022-12-13T21:51:55.112Z,29.23
2022-12-13T21:54:24.413Z,26.90
2022-12-13T21:57:09.816Z,27.80
2022-12-13T21:59:38.459Z,30.53
2022-12-13T22:02:15.009Z,25.47
2022-12-13T22:04:47.126Z,27.40
2022-12-13T22:07:16.721Z,21.80
2022-12-13T22:09:46.630Z,26.63
2022-12-13T22:12:21.465Z,22.13
2022-12-13T22:14:49.758Z,29.97
2022-12-13T22:17:17.869Z,26.20
2022-12-13T22:19:48.800Z,24.03
2022-12-13T22:22:18.023Z,23.27
2022-12-13T22:24:53.115Z,18.93
2022-12-13T22:27:24.080Z,19.30
2022-12-13T22:29:53.405Z,23.50
2022-12-13T22:32:22.557Z,21.03
2022-12-13T22:34:50.566Z,26.93
2022-12-13T22:37:18.509Z,25.90
2022-12-13T22:39:47.807Z,28.77
2022-12-13T22:42:15.806Z,21.63
2022-12-13T22:44:43.870Z,20.63
2022-12-13T22:47:11.894Z,22.13
2022-12-13T22:49:40.072Z,24.23
2022-12-13T22:52:08.206Z,22.53
2022-12-13T22:54:36.112Z,20.93
2022-12-13T22:57:05.746Z,20.47
2022-12-13T22:59:34.134Z,20.13
2022-12-13T23:02:03.915Z,20.53
2022-12-13T23:04:32.522Z,22.07
2022-12-13T23:07:00.451Z,22.53
2022-12-13T23:09:28.377Z,20.13
2022-12-13T23:12:13.808Z,14.80
2022-12-13T23:14:43.095Z,21.00
2022-12-13T23:17:11.391Z,18.47
2022-12-13T23:19:50.784Z,21.73
2022-12-13T23:22:21.931Z,16.73
2022-12-13T23:24:50.389Z,19.97
2022-12-13T23:27:18.897Z,22.93
2022-12-13T23:29:48.236Z,19.97
2022-12-13T23:32:16.121Z,18.90
2022-12-13T23:34:43.968Z,16.57
2022-12-13T23:37:12.008Z,19.20
2022-12-13T23:39:40.223Z,15.50
2022-12-13T23:42:08.168Z,18.03
2022-12-13T23:44:36.257Z,16.10
2022-12-13T23:47:05.614Z,17.57
2022-12-13T23:49:33.426Z,20.13
2022-12-13T23:52:01.366Z,18.93
2022-12-13T23:54:32.187Z,13.77
2022-12-13T23:57:00.048Z,18.33
2022-12-13T23:59:28.921Z,18.63
